sensor_id;sensor_type;location;lat;lon;timestamp;temperature;humidity
6421;DHT22;3243;50.958;7.012;2023-04-25T00:02:08;7.40;99.90
6421;DHT22;3243;50.958;7.012;2023-04-25T00:04:35;7.40;99.90
6421;DHT22;3243;50.958;7.012;2023-04-25T00:07:05;7.50;99.90
6421;DHT22;3243;50.958;7.012;2023-04-25T00:09:32;7.50;99.90
6421;DHT22;3243;50.958;7.012;2023-04-25T00:11:58;7.50;99.90
6421;DHT22;3243;50.958;7.012;2023-04-25T00:14:25;7.60;99.90
6421;DHT22;3243;50.958;7.012;2023-04-25T00:16:52;7.50;99.90
6421;DHT22;3243;50.958;7.012;2023-04-25T00:19:18;7.50;99.90
6421;DHT22;3243;50.958;7.012;2023-04-25T00:21:45;7.40;99.90
6421;DHT22;3243;50.958;7.012;2023-04-25T00:24:12;7.40;99.90
6421;DHT22;3243;50.958;7.012;2023-04-25T00:26:39;7.20;99.90
6421;DHT22;3243;50.958;7.012;2023-04-25T00:29:06;7.30;99.90
6421;DHT22;3243;50.958;7.012;2023-04-25T00:31:33;7.30;99.90
6421;DHT22;3243;50.958;7.012;2023-04-25T00:33:59;7.30;99.90
6421;DHT22;3243;50.958;7.012;2023-04-25T00:36:26;7.30;99.90
6421;DHT22;3243;50.958;7.012;2023-04-25T00:38:54;7.20;99.90
6421;DHT22;3243;50.958;7.012;2023-04-25T00:41:21;7.10;99.90
6421;DHT22;3243;50.958;7.012;2023-04-25T00:43:48;7.10;99.90
6421;DHT22;3243;50.958;7.012;2023-04-25T00:46:16;7.20;99.90
6421;DHT22;3243;50.958;7.012;2023-04-25T00:48:43;7.10;99.90
6421;DHT22;3243;50.958;7.012;2023-04-25T00:51:14;7.00;99.90
6421;DHT22;3243;50.958;7.012;2023-04-25T00:53:42;7.00;99.90
6421;DHT22;3243;50.958;7.012;2023-04-25T00:56:09;6.90;99.90
6421;DHT22;3243;50.958;7.012;2023-04-25T00:58:36;6.90;99.90
6421;DHT22;3243;50.958;7.012;2023-04-25T01:01:04;6.90;99.90
6421;DHT22;3243;50.958;7.012;2023-04-25T01:03:33;6.90;99.90
6421;DHT22;3243;50.958;7.012;2023-04-25T01:06:02;6.90;99.90
6421;DHT22;3243;50.958;7.012;2023-04-25T01:08:29;6.80;99.90
6421;DHT22;3243;50.958;7.012;2023-04-25T01:10:56;6.80;99.90
6421;DHT22;3243;50.958;7.012;2023-04-25T01:13:23;6.80;99.90
6421;DHT22;3243;50.958;7.012;2023-04-25T01:15:50;6.80;99.90
6421;DHT22;3243;50.958;7.012;2023-04-25T01:18:18;6.80;99.90
6421;DHT22;3243;50.958;7.012;2023-04-25T01:20:46;6.70;99.90
6421;DHT22;3243;50.958;7.012;2023-04-25T01:23:13;6.70;99.90
6421;DHT22;3243;50.958;7.012;2023-04-25T01:25:40;6.60;99.90
6421;DHT22;3243;50.958;7.012;2023-04-25T01:28:07;6.60;99.90
6421;DHT22;3243;50.958;7.012;2023-04-25T01:30:34;6.60;99.90
6421;DHT22;3243;50.958;7.012;2023-04-25T01:33:03;6.70;99.90
6421;DHT22;3243;50.958;7.012;2023-04-25T01:35:31;6.70;99.90
6421;DHT22;3243;50.958;7.012;2023-04-25T01:37:59;6.80;99.90
6421;DHT22;3243;50.958;7.012;2023-04-25T01:40:27;6.90;99.90
6421;DHT22;3243;50.958;7.012;2023-04-25T01:42:54;7.00;99.90
6421;DHT22;3243;50.958;7.012;2023-04-25T01:45:21;6.90;99.90
6421;DHT22;3243;50.958;7.012;2023-04-25T01:47:48;6.90;99.90
6421;DHT22;3243;50.958;7.012;2023-04-25T01:50:18;6.90;99.90
6421;DHT22;3243;50.958;7.012;2023-04-25T01:52:45;6.80;99.90
6421;DHT22;3243;50.958;7.012;2023-04-25T01:55:12;6.70;99.90
6421;DHT22;3243;50.958;7.012;2023-04-25T01:57:39;6.70;99.90
6421;DHT22;3243;50.958;7.012;2023-04-25T02:00:08;6.70;99.90
6421;DHT22;3243;50.958;7.012;2023-04-25T02:02:35;6.60;99.90
6421;DHT22;3243;50.958;7.012;2023-04-25T02:05:02;6.60;99.90
6421;DHT22;3243;50.958;7.012;2023-04-25T02:07:29;6.50;99.90
6421;DHT22;3243;50.958;7.012;2023-04-25T02:09:56;6.40;99.90
6421;DHT22;3243;50.958;7.012;2023-04-25T02:12:23;6.40;99.90
6421;DHT22;3243;50.958;7.012;2023-04-25T02:14:50;6.50;99.90
6421;DHT22;3243;50.958;7.012;2023-04-25T02:17:17;6.30;99.90
6421;DHT22;3243;50.958;7.012;2023-04-25T02:19:44;6.30;99.90
6421;DHT22;3243;50.958;7.012;2023-04-25T02:22:11;6.30;99.90
6421;DHT22;3243;50.958;7.012;2023-04-25T02:24:38;6.30;99.90
6421;DHT22;3243;50.958;7.012;2023-04-25T02:27:05;6.20;99.90
6421;DHT22;3243;50.958;7.012;2023-04-25T02:29:32;6.30;99.90
6421;DHT22;3243;50.958;7.012;2023-04-25T02:31:59;6.30;99.90
6421;DHT22;3243;50.958;7.012;2023-04-25T02:34:25;6.40;99.90
6421;DHT22;3243;50.958;7.012;2023-04-25T02:36:52;6.40;99.90
6421;DHT22;3243;50.958;7.012;2023-04-25T02:39:19;6.50;99.90
6421;DHT22;3243;50.958;7.012;2023-04-25T02:41:45;6.60;99.90
6421;DHT22;3243;50.958;7.012;2023-04-25T02:44:12;6.70;99.90
6421;DHT22;3243;50.958;7.012;2023-04-25T02:46:39;6.70;99.90
6421;DHT22;3243;50.958;7.012;2023-04-25T02:49:06;6.70;99.90
6421;DHT22;3243;50.958;7.012;2023-04-25T02:51:33;6.70;99.90
6421;DHT22;3243;50.958;7.012;2023-04-25T02:54:00;6.70;99.90
6421;DHT22;3243;50.958;7.012;2023-04-25T02:56:27;6.80;99.90
6421;DHT22;3243;50.958;7.012;2023-04-25T02:58:55;6.90;99.90
6421;DHT22;3243;50.958;7.012;2023-04-25T03:01:22;6.90;99.90
6421;DHT22;3243;50.958;7.012;2023-04-25T03:03:49;6.90;99.90
6421;DHT22;3243;50.958;7.012;2023-04-25T03:06:16;6.90;99.90
6421;DHT22;3243;50.958;7.012;2023-04-25T03:08:43;6.90;99.90
6421;DHT22;3243;50.958;7.012;2023-04-25T03:11:10;6.90;99.90
6421;DHT22;3243;50.958;7.012;2023-04-25T03:13:37;6.90;99.90
6421;DHT22;3243;50.958;7.012;2023-04-25T03:16:04;6.90;99.90
6421;DHT22;3243;50.958;7.012;2023-04-25T03:18:31;6.90;99.90
6421;DHT22;3243;50.958;7.012;2023-04-25T03:20:58;7.00;99.90
6421;DHT22;3243;50.958;7.012;2023-04-25T03:23:24;7.00;99.90
6421;DHT22;3243;50.958;7.012;2023-04-25T03:25:52;7.00;99.90
6421;DHT22;3243;50.958;7.012;2023-04-25T03:28:19;7.00;99.90
6421;DHT22;3243;50.958;7.012;2023-04-25T03:30:46;7.00;99.90
6421;DHT22;3243;50.958;7.012;2023-04-25T03:33:13;7.00;99.90
6421;DHT22;3243;50.958;7.012;2023-04-25T03:35:39;6.90;99.90
6421;DHT22;3243;50.958;7.012;2023-04-25T03:38:06;7.00;99.90
6421;DHT22;3243;50.958;7.012;2023-04-25T03:40:33;7.00;99.90
6421;DHT22;3243;50.958;7.012;2023-04-25T03:43:00;6.90;99.90
6421;DHT22;3243;50.958;7.012;2023-04-25T03:45:26;6.90;99.90
6421;DHT22;3243;50.958;7.012;2023-04-25T03:47:53;6.90;99.90
6421;DHT22;3243;50.958;7.012;2023-04-25T03:50:20;6.90;99.90
6421;DHT22;3243;50.958;7.012;2023-04-25T03:52:46;6.90;99.90
6421;DHT22;3243;50.958;7.012;2023-04-25T03:55:13;6.90;99.90
6421;DHT22;3243;50.958;7.012;2023-04-25T03:57:40;6.90;99.90
6421;DHT22;3243;50.958;7.012;2023-04-25T04:00:07;7.00;99.90
6421;DHT22;3243;50.958;7.012;2023-04-25T04:02:34;7.00;99.90
6421;DHT22;3243;50.958;7.012;2023-04-25T04:05:03;7.00;99.90
6421;DHT22;3243;50.958;7.012;2023-04-25T04:07:30;7.00;99.90
6421;DHT22;3243;50.958;7.012;2023-04-25T04:09:59;7.00;99.90
6421;DHT22;3243;50.958;7.012;2023-04-25T04:12:26;7.00;99.90
6421;DHT22;3243;50.958;7.012;2023-04-25T04:14:53;7.00;99.90
6421;DHT22;3243;50.958;7.012;2023-04-25T04:17:19;7.00;99.90
6421;DHT22;3243;50.958;7.012;2023-04-25T04:19:46;7.00;99.90
6421;DHT22;3243;50.958;7.012;2023-04-25T04:22:13;7.10;99.90
6421;DHT22;3243;50.958;7.012;2023-04-25T04:24:40;7.10;99.90
6421;DHT22;3243;50.958;7.012;2023-04-25T04:27:06;7.10;99.90
6421;DHT22;3243;50.958;7.012;2023-04-25T04:29:33;7.10;99.90
6421;DHT22;3243;50.958;7.012;2023-04-25T04:32:00;7.10;99.90
6421;DHT22;3243;50.958;7.012;2023-04-25T04:34:29;7.10;99.90
6421;DHT22;3243;50.958;7.012;2023-04-25T04:36:55;7.10;99.90
6421;DHT22;3243;50.958;7.012;2023-04-25T04:39:22;7.20;99.90
6421;DHT22;3243;50.958;7.012;2023-04-25T04:41:49;7.20;99.90
6421;DHT22;3243;50.958;7.012;2023-04-25T04:44:17;7.20;99.90
6421;DHT22;3243;50.958;7.012;2023-04-25T04:46:44;7.30;99.90
6421;DHT22;3243;50.958;7.012;2023-04-25T04:49:11;7.30;99.90
6421;DHT22;3243;50.958;7.012;2023-04-25T04:51:40;7.30;99.90
6421;DHT22;3243;50.958;7.012;2023-04-25T04:54:13;7.30;99.90
6421;DHT22;3243;50.958;7.012;2023-04-25T04:56:40;7.30;99.90
6421;DHT22;3243;50.958;7.012;2023-04-25T04:59:06;7.30;99.90
6421;DHT22;3243;50.958;7.012;2023-04-25T05:01:34;7.40;99.90
6421;DHT22;3243;50.958;7.012;2023-04-25T05:04:02;7.40;99.90
6421;DHT22;3243;50.958;7.012;2023-04-25T05:06:30;7.40;99.90
6421;DHT22;3243;50.958;7.012;2023-04-25T05:08:57;7.40;99.90
6421;DHT22;3243;50.958;7.012;2023-04-25T05:11:24;7.50;99.90
6421;DHT22;3243;50.958;7.012;2023-04-25T05:13:54;7.50;99.90
6421;DHT22;3243;50.958;7.012;2023-04-25T05:16:21;7.50;99.90
6421;DHT22;3243;50.958;7.012;2023-04-25T05:18:48;7.50;99.90
6421;DHT22;3243;50.958;7.012;2023-04-25T05:21:14;7.50;99.90
6421;DHT22;3243;50.958;7.012;2023-04-25T05:23:41;7.50;99.90
6421;DHT22;3243;50.958;7.012;2023-04-25T05:26:08;7.50;99.90
6421;DHT22;3243;50.958;7.012;2023-04-25T05:28:40;7.70;99.90
6421;DHT22;3243;50.958;7.012;2023-04-25T05:31:10;7.70;99.90
6421;DHT22;3243;50.958;7.012;2023-04-25T05:33:37;7.70;99.90
6421;DHT22;3243;50.958;7.012;2023-04-25T05:36:04;7.80;99.90
6421;DHT22;3243;50.958;7.012;2023-04-25T05:38:31;7.90;99.90
6421;DHT22;3243;50.958;7.012;2023-04-25T05:41:00;8.00;99.90
6421;DHT22;3243;50.958;7.012;2023-04-25T05:43:27;8.10;99.90
6421;DHT22;3243;50.958;7.012;2023-04-25T05:45:54;8.10;99.90
6421;DHT22;3243;50.958;7.012;2023-04-25T05:48:21;8.20;99.90
6421;DHT22;3243;50.958;7.012;2023-04-25T05:50:47;8.30;99.90
6421;DHT22;3243;50.958;7.012;2023-04-25T05:53:14;8.30;99.90
6421;DHT22;3243;50.958;7.012;2023-04-25T05:55:41;8.40;99.90
6421;DHT22;3243;50.958;7.012;2023-04-25T05:58:08;8.30;99.90
6421;DHT22;3243;50.958;7.012;2023-04-25T06:00:35;8.40;99.90
6421;DHT22;3243;50.958;7.012;2023-04-25T06:03:02;8.40;99.90
6421;DHT22;3243;50.958;7.012;2023-04-25T06:05:29;8.50;99.90
6421;DHT22;3243;50.958;7.012;2023-04-25T06:07:56;8.60;99.90
6421;DHT22;3243;50.958;7.012;2023-04-25T06:12:50;11.50;99.90
6421;DHT22;3243;50.958;7.012;2023-04-25T06:15:17;8.80;99.90
6421;DHT22;3243;50.958;7.012;2023-04-25T06:17:54;8.90;99.90
6421;DHT22;3243;50.958;7.012;2023-04-25T06:20:21;10.00;99.90
6421;DHT22;3243;50.958;7.012;2023-04-25T06:22:51;10.00;99.90
6421;DHT22;3243;50.958;7.012;2023-04-25T06:25:18;11.10;99.90
6421;DHT22;3243;50.958;7.012;2023-04-25T06:27:45;11.10;99.90
6421;DHT22;3243;50.958;7.012;2023-04-25T06:32:39;11.10;99.90
6421;DHT22;3243;50.958;7.012;2023-04-25T06:35:06;10.80;99.90
6421;DHT22;3243;50.958;7.012;2023-04-25T06:37:33;10.40;99.90
6421;DHT22;3243;50.958;7.012;2023-04-25T06:39:59;10.10;99.90
6421;DHT22;3243;50.958;7.012;2023-04-25T06:42:26;10.10;99.90
6421;DHT22;3243;50.958;7.012;2023-04-25T06:44:53;10.00;99.90
6421;DHT22;3243;50.958;7.012;2023-04-25T06:47:20;10.00;99.90
6421;DHT22;3243;50.958;7.012;2023-04-25T06:49:46;10.00;99.90
6421;DHT22;3243;50.958;7.012;2023-04-25T06:52:13;10.20;99.90
6421;DHT22;3243;50.958;7.012;2023-04-25T06:54:40;10.30;99.90
6421;DHT22;3243;50.958;7.012;2023-04-25T06:57:06;10.50;99.90
6421;DHT22;3243;50.958;7.012;2023-04-25T06:59:33;10.50;99.90
6421;DHT22;3243;50.958;7.012;2023-04-25T07:02:00;10.50;99.90
6421;DHT22;3243;50.958;7.012;2023-04-25T07:04:26;10.50;99.90
6421;DHT22;3243;50.958;7.012;2023-04-25T07:06:54;10.50;99.90
6421;DHT22;3243;50.958;7.012;2023-04-25T07:09:21;10.40;99.90
6421;DHT22;3243;50.958;7.012;2023-04-25T07:11:48;10.60;99.90
6421;DHT22;3243;50.958;7.012;2023-04-25T07:14:14;10.80;99.90
6421;DHT22;3243;50.958;7.012;2023-04-25T07:16:41;10.80;99.90
6421;DHT22;3243;50.958;7.012;2023-04-25T07:19:08;10.90;99.90
6421;DHT22;3243;50.958;7.012;2023-04-25T07:21:35;10.90;99.90
6421;DHT22;3243;50.958;7.012;2023-04-25T07:24:02;10.90;99.90
6421;DHT22;3243;50.958;7.012;2023-04-25T07:26:29;10.80;99.90
6421;DHT22;3243;50.958;7.012;2023-04-25T07:28:56;10.80;99.90
6421;DHT22;3243;50.958;7.012;2023-04-25T07:31:23;10.70;99.90
6421;DHT22;3243;50.958;7.012;2023-04-25T07:33:50;10.70;99.90
6421;DHT22;3243;50.958;7.012;2023-04-25T07:36:17;10.50;99.90
6421;DHT22;3243;50.958;7.012;2023-04-25T07:38:43;10.60;99.90
6421;DHT22;3243;50.958;7.012;2023-04-25T07:41:10;10.40;99.90
6421;DHT22;3243;50.958;7.012;2023-04-25T07:43:37;10.70;99.90
6421;DHT22;3243;50.958;7.012;2023-04-25T07:46:04;11.00;99.90
6421;DHT22;3243;50.958;7.012;2023-04-25T07:48:31;11.00;99.90
6421;DHT22;3243;50.958;7.012;2023-04-25T07:50:58;11.00;99.90
6421;DHT22;3243;50.958;7.012;2023-04-25T07:53:25;11.00;99.90
6421;DHT22;3243;50.958;7.012;2023-04-25T07:55:51;11.20;99.90
6421;DHT22;3243;50.958;7.012;2023-04-25T07:58:18;11.20;99.90
6421;DHT22;3243;50.958;7.012;2023-04-25T08:00:48;11.30;99.90
6421;DHT22;3243;50.958;7.012;2023-04-25T08:03:15;11.10;99.90
6421;DHT22;3243;50.958;7.012;2023-04-25T08:05:42;11.30;99.90
6421;DHT22;3243;50.958;7.012;2023-04-25T08:08:10;11.70;99.90
6421;DHT22;3243;50.958;7.012;2023-04-25T08:10:36;11.70;99.90
6421;DHT22;3243;50.958;7.012;2023-04-25T08:13:03;12.00;99.90
6421;DHT22;3243;50.958;7.012;2023-04-25T08:15:30;12.30;99.90
6421;DHT22;3243;50.958;7.012;2023-04-25T08:17:57;12.10;3.20
6421;DHT22;3243;50.958;7.012;2023-04-25T08:20:24;11.90;40.90
6421;DHT22;3243;50.958;7.012;2023-04-25T08:22:51;11.90;46.70
6421;DHT22;3243;50.958;7.012;2023-04-25T08:25:18;11.60;1.00
6421;DHT22;3243;50.958;7.012;2023-04-25T08:27:45;11.60;50.50
6421;DHT22;3243;50.958;7.012;2023-04-25T08:30:12;11.30;99.90
6421;DHT22;3243;50.958;7.012;2023-04-25T08:32:39;11.10;99.90
6421;DHT22;3243;50.958;7.012;2023-04-25T08:35:06;11.10;99.90
6421;DHT22;3243;50.958;7.012;2023-04-25T08:37:33;11.20;99.90
6421;DHT22;3243;50.958;7.012;2023-04-25T08:39:59;11.40;99.90
6421;DHT22;3243;50.958;7.012;2023-04-25T08:42:27;11.40;67.00
6421;DHT22;3243;50.958;7.012;2023-04-25T08:44:54;11.00;99.90
6421;DHT22;3243;50.958;7.012;2023-04-25T08:47:22;10.70;99.90
6421;DHT22;3243;50.958;7.012;2023-04-25T08:49:49;10.40;99.90
6421;DHT22;3243;50.958;7.012;2023-04-25T08:52:22;10.20;99.90
6421;DHT22;3243;50.958;7.012;2023-04-25T08:54:49;10.20;99.90
6421;DHT22;3243;50.958;7.012;2023-04-25T08:57:18;10.00;99.90
6421;DHT22;3243;50.958;7.012;2023-04-25T08:59:47;10.10;99.90
6421;DHT22;3243;50.958;7.012;2023-04-25T09:02:13;10.00;99.90
6421;DHT22;3243;50.958;7.012;2023-04-25T09:04:43;9.90;99.90
6421;DHT22;3243;50.958;7.012;2023-04-25T09:07:10;9.90;99.90
6421;DHT22;3243;50.958;7.012;2023-04-25T09:09:37;9.80;99.90
6421;DHT22;3243;50.958;7.012;2023-04-25T09:12:05;9.90;99.90
6421;DHT22;3243;50.958;7.012;2023-04-25T09:14:32;9.90;99.90
6421;DHT22;3243;50.958;7.012;2023-04-25T09:17:02;9.90;99.90
6421;DHT22;3243;50.958;7.012;2023-04-25T09:19:35;10.60;99.90
6421;DHT22;3243;50.958;7.012;2023-04-25T09:22:08;10.60;99.90
6421;DHT22;3243;50.958;7.012;2023-04-25T09:24:44;11.00;99.90
6421;DHT22;3243;50.958;7.012;2023-04-25T09:27:18;11.40;99.90
6421;DHT22;3243;50.958;7.012;2023-04-25T09:29:45;11.50;99.90
6421;DHT22;3243;50.958;7.012;2023-04-25T09:32:19;11.70;99.90
6421;DHT22;3243;50.958;7.012;2023-04-25T09:37:33;12.00;99.90
6421;DHT22;3243;50.958;7.012;2023-04-25T09:40:00;12.20;98.00
6421;DHT22;3243;50.958;7.012;2023-04-25T09:42:32;12.10;40.40
6421;DHT22;3243;50.958;7.012;2023-04-25T09:45:01;11.90;1.00
6421;DHT22;3243;50.958;7.012;2023-04-25T09:47:28;11.30;1.00
6421;DHT22;3243;50.958;7.012;2023-04-25T09:49:55;11.30;11.50
6421;DHT22;3243;50.958;7.012;2023-04-25T09:52:23;11.10;32.60
6421;DHT22;3243;50.958;7.012;2023-04-25T09:54:52;10.80;99.90
6421;DHT22;3243;50.958;7.012;2023-04-25T09:57:22;10.60;97.40
6421;DHT22;3243;50.958;7.012;2023-04-25T09:59:54;10.70;99.90
6421;DHT22;3243;50.958;7.012;2023-04-25T10:02:23;10.80;99.90
6421;DHT22;3243;50.958;7.012;2023-04-25T10:04:52;11.00;38.80
6421;DHT22;3243;50.958;7.012;2023-04-25T10:07:26;11.10;95.00
6421;DHT22;3243;50.958;7.012;2023-04-25T10:10:00;11.30;1.00
6421;DHT22;3243;50.958;7.012;2023-04-25T10:12:28;11.30;1.00
6421;DHT22;3243;50.958;7.012;2023-04-25T10:14:55;11.10;82.30
6421;DHT22;3243;50.958;7.012;2023-04-25T10:17:22;11.20;84.40
6421;DHT22;3243;50.958;7.012;2023-04-25T10:19:51;11.20;99.90
6421;DHT22;3243;50.958;7.012;2023-04-25T10:22:23;11.20;1.00
6421;DHT22;3243;50.958;7.012;2023-04-25T10:24:52;11.40;1.00
6421;DHT22;3243;50.958;7.012;2023-04-25T10:27:20;11.50;1.00
6421;DHT22;3243;50.958;7.012;2023-04-25T10:30:03;11.50;1.00
6421;DHT22;3243;50.958;7.012;2023-04-25T10:32:31;11.60;1.00
6421;DHT22;3243;50.958;7.012;2023-04-25T10:35:19;11.60;1.00
6421;DHT22;3243;50.958;7.012;2023-04-25T10:40:27;12.40;1.00
6421;DHT22;3243;50.958;7.012;2023-04-25T10:42:54;12.50;99.90
6421;DHT22;3243;50.958;7.012;2023-04-25T10:47:51;12.10;99.90
6421;DHT22;3243;50.958;7.012;2023-04-25T10:50:18;11.80;99.90
6421;DHT22;3243;50.958;7.012;2023-04-25T10:52:45;11.40;99.90
6421;DHT22;3243;50.958;7.012;2023-04-25T10:55:12;11.20;99.90
6421;DHT22;3243;50.958;7.012;2023-04-25T10:57:41;10.90;1.00
6421;DHT22;3243;50.958;7.012;2023-04-25T11:00:12;10.70;1.00
6421;DHT22;3243;50.958;7.012;2023-04-25T11:02:55;10.60;1.00
6421;DHT22;3243;50.958;7.012;2023-04-25T11:05:31;10.70;1.00
6421;DHT22;3243;50.958;7.012;2023-04-25T11:08:30;10.80;1.00
6421;DHT22;3243;50.958;7.012;2023-04-25T11:11:00;11.10;1.00
6421;DHT22;3243;50.958;7.012;2023-04-25T11:13:29;11.50;1.00
6421;DHT22;3243;50.958;7.012;2023-04-25T11:15:57;11.70;1.00
6421;DHT22;3243;50.958;7.012;2023-04-25T11:18:41;11.70;99.90
6421;DHT22;3243;50.958;7.012;2023-04-25T11:21:08;11.70;99.90
6421;DHT22;3243;50.958;7.012;2023-04-25T11:23:35;11.90;99.90
6421;DHT22;3243;50.958;7.012;2023-04-25T11:26:05;11.90;99.90
6421;DHT22;3243;50.958;7.012;2023-04-25T11:30:58;11.70;99.90
6421;DHT22;3243;50.958;7.012;2023-04-25T11:33:26;11.70;99.90
6421;DHT22;3243;50.958;7.012;2023-04-25T11:35:54;11.90;99.90
6421;DHT22;3243;50.958;7.012;2023-04-25T11:38:23;12.00;99.90
6421;DHT22;3243;50.958;7.012;2023-04-25T11:40:53;11.90;99.90
6421;DHT22;3243;50.958;7.012;2023-04-25T11:43:22;12.00;99.90
6421;DHT22;3243;50.958;7.012;2023-04-25T11:45:50;12.30;99.90
6421;DHT22;3243;50.958;7.012;2023-04-25T11:48:19;12.00;99.90
6421;DHT22;3243;50.958;7.012;2023-04-25T11:50:51;12.00;99.90
6421;DHT22;3243;50.958;7.012;2023-04-25T11:53:19;12.50;99.90
6421;DHT22;3243;50.958;7.012;2023-04-25T11:55:46;12.80;99.90
6421;DHT22;3243;50.958;7.012;2023-04-25T11:58:14;12.60;99.90
6421;DHT22;3243;50.958;7.012;2023-04-25T12:00:42;12.10;99.90
6421;DHT22;3243;50.958;7.012;2023-04-25T12:03:17;12.20;99.90
6421;DHT22;3243;50.958;7.012;2023-04-25T12:05:45;12.20;99.90
6421;DHT22;3243;50.958;7.012;2023-04-25T12:08:13;12.30;99.90
6421;DHT22;3243;50.958;7.012;2023-04-25T12:10:42;12.20;99.90
6421;DHT22;3243;50.958;7.012;2023-04-25T12:13:23;12.20;99.90
6421;DHT22;3243;50.958;7.012;2023-04-25T12:15:51;12.50;99.90
6421;DHT22;3243;50.958;7.012;2023-04-25T12:18:23;12.60;84.40
6421;DHT22;3243;50.958;7.012;2023-04-25T12:20:50;13.00;49.30
6421;DHT22;3243;50.958;7.012;2023-04-25T12:23:25;13.20;52.30
6421;DHT22;3243;50.958;7.012;2023-04-25T12:25:53;13.20;43.30
6421;DHT22;3243;50.958;7.012;2023-04-25T12:28:22;13.10;1.00
6421;DHT22;3243;50.958;7.012;2023-04-25T12:31:04;13.20;1.00
6421;DHT22;3243;50.958;7.012;2023-04-25T12:33:32;13.20;1.00
6421;DHT22;3243;50.958;7.012;2023-04-25T12:36:00;13.10;1.00
6421;DHT22;3243;50.958;7.012;2023-04-25T12:38:36;12.90;1.00
6421;DHT22;3243;50.958;7.012;2023-04-25T12:41:03;12.60;1.00
6421;DHT22;3243;50.958;7.012;2023-04-25T12:43:30;12.60;1.00
6421;DHT22;3243;50.958;7.012;2023-04-25T12:45:57;12.40;1.00
6421;DHT22;3243;50.958;7.012;2023-04-25T12:48:24;12.30;1.00
6421;DHT22;3243;50.958;7.012;2023-04-25T12:50:51;12.30;1.00
6421;DHT22;3243;50.958;7.012;2023-04-25T12:53:19;12.20;1.00
6421;DHT22;3243;50.958;7.012;2023-04-25T12:55:47;12.30;1.00
6421;DHT22;3243;50.958;7.012;2023-04-25T12:58:15;12.10;1.00
6421;DHT22;3243;50.958;7.012;2023-04-25T13:00:42;12.00;1.00
6421;DHT22;3243;50.958;7.012;2023-04-25T13:03:10;12.10;1.00
6421;DHT22;3243;50.958;7.012;2023-04-25T13:05:38;12.00;1.00
6421;DHT22;3243;50.958;7.012;2023-04-25T13:08:05;12.00;1.00
6421;DHT22;3243;50.958;7.012;2023-04-25T13:10:32;12.00;1.00
6421;DHT22;3243;50.958;7.012;2023-04-25T13:13:00;12.00;1.00
6421;DHT22;3243;50.958;7.012;2023-04-25T13:15:28;12.20;1.00
6421;DHT22;3243;50.958;7.012;2023-04-25T13:17:54;12.20;1.00
6421;DHT22;3243;50.958;7.012;2023-04-25T13:20:22;12.90;1.00
6421;DHT22;3243;50.958;7.012;2023-04-25T13:22:49;13.30;1.00
6421;DHT22;3243;50.958;7.012;2023-04-25T13:25:16;13.30;1.00
6421;DHT22;3243;50.958;7.012;2023-04-25T13:27:43;13.60;1.00
6421;DHT22;3243;50.958;7.012;2023-04-25T13:30:11;13.30;1.00
6421;DHT22;3243;50.958;7.012;2023-04-25T13:32:39;13.10;1.00
6421;DHT22;3243;50.958;7.012;2023-04-25T13:35:09;12.90;1.00
6421;DHT22;3243;50.958;7.012;2023-04-25T13:37:37;12.80;1.00
6421;DHT22;3243;50.958;7.012;2023-04-25T13:40:07;12.40;1.00
6421;DHT22;3243;50.958;7.012;2023-04-25T13:42:37;12.00;1.00
6421;DHT22;3243;50.958;7.012;2023-04-25T13:45:04;11.90;1.00
6421;DHT22;3243;50.958;7.012;2023-04-25T13:47:31;12.00;1.00
6421;DHT22;3243;50.958;7.012;2023-04-25T13:52:25;12.40;1.00
6421;DHT22;3243;50.958;7.012;2023-04-25T13:54:52;12.50;1.00
6421;DHT22;3243;50.958;7.012;2023-04-25T13:59:46;12.50;99.90
6421;DHT22;3243;50.958;7.012;2023-04-25T14:02:13;12.90;99.90
6421;DHT22;3243;50.958;7.012;2023-04-25T14:04:40;12.40;99.90
6421;DHT22;3243;50.958;7.012;2023-04-25T14:09:35;12.70;99.90
6421;DHT22;3243;50.958;7.012;2023-04-25T14:12:02;12.70;99.90
6421;DHT22;3243;50.958;7.012;2023-04-25T14:14:28;12.70;99.90
6421;DHT22;3243;50.958;7.012;2023-04-25T14:16:55;12.90;81.60
6421;DHT22;3243;50.958;7.012;2023-04-25T14:19:23;12.90;72.40
6421;DHT22;3243;50.958;7.012;2023-04-25T14:21:51;13.00;19.10
6421;DHT22;3243;50.958;7.012;2023-04-25T14:24:17;12.70;10.80
6421;DHT22;3243;50.958;7.012;2023-04-25T14:26:44;12.60;1.00
6421;DHT22;3243;50.958;7.012;2023-04-25T14:29:11;12.40;49.10
6421;DHT22;3243;50.958;7.012;2023-04-25T14:31:39;12.60;86.20
6421;DHT22;3243;50.958;7.012;2023-04-25T14:34:07;12.90;99.90
6421;DHT22;3243;50.958;7.012;2023-04-25T14:36:35;13.00;97.30
6421;DHT22;3243;50.958;7.012;2023-04-25T14:39:03;12.60;99.90
6421;DHT22;3243;50.958;7.012;2023-04-25T14:41:31;12.30;99.90
6421;DHT22;3243;50.958;7.012;2023-04-25T14:43:58;12.40;92.40
6421;DHT22;3243;50.958;7.012;2023-04-25T14:46:25;12.50;22.40
6421;DHT22;3243;50.958;7.012;2023-04-25T14:48:53;12.50;1.00
6421;DHT22;3243;50.958;7.012;2023-04-25T14:51:22;12.50;1.00
6421;DHT22;3243;50.958;7.012;2023-04-25T14:53:49;12.60;1.00
6421;DHT22;3243;50.958;7.012;2023-04-25T14:56:17;12.60;1.00
6421;DHT22;3243;50.958;7.012;2023-04-25T14:58:44;12.20;1.00
6421;DHT22;3243;50.958;7.012;2023-04-25T15:03:42;11.90;1.00
6421;DHT22;3243;50.958;7.012;2023-04-25T15:06:09;11.60;1.00
6421;DHT22;3243;50.958;7.012;2023-04-25T15:11:04;11.30;1.00
6421;DHT22;3243;50.958;7.012;2023-04-25T15:13:31;11.20;1.00
6421;DHT22;3243;50.958;7.012;2023-04-25T15:15:58;11.30;1.00
6421;DHT22;3243;50.958;7.012;2023-04-25T15:20:53;11.50;1.00
6421;DHT22;3243;50.958;7.012;2023-04-25T15:23:20;11.60;1.00
6421;DHT22;3243;50.958;7.012;2023-04-25T15:25:50;11.80;1.00
6421;DHT22;3243;50.958;7.012;2023-04-25T15:28:17;12.00;4.00
6421;DHT22;3243;50.958;7.012;2023-04-25T15:30:43;12.10;99.90
6421;DHT22;3243;50.958;7.012;2023-04-25T15:33:11;12.10;99.90
6421;DHT22;3243;50.958;7.012;2023-04-25T15:35:38;12.20;1.00
6421;DHT22;3243;50.958;7.012;2023-04-25T15:38:05;12.30;22.60
6421;DHT22;3243;50.958;7.012;2023-04-25T15:40:32;12.60;1.00
6421;DHT22;3243;50.958;7.012;2023-04-25T15:42:58;12.70;1.00
6421;DHT22;3243;50.958;7.012;2023-04-25T15:45:26;12.80;1.00
6421;DHT22;3243;50.958;7.012;2023-04-25T15:47:54;13.00;99.90
6421;DHT22;3243;50.958;7.012;2023-04-25T15:50:22;12.80;1.00
6421;DHT22;3243;50.958;7.012;2023-04-25T15:52:50;12.80;1.00
6421;DHT22;3243;50.958;7.012;2023-04-25T15:55:18;12.70;1.00
6421;DHT22;3243;50.958;7.012;2023-04-25T15:57:48;12.70;1.00
6421;DHT22;3243;50.958;7.012;2023-04-25T16:02:44;12.20;1.00
6421;DHT22;3243;50.958;7.012;2023-04-25T16:05:11;12.10;1.00
6421;DHT22;3243;50.958;7.012;2023-04-25T16:07:41;12.00;99.90
6421;DHT22;3243;50.958;7.012;2023-04-25T16:10:09;12.00;99.90
6421;DHT22;3243;50.958;7.012;2023-04-25T16:12:37;12.00;99.90
6421;DHT22;3243;50.958;7.012;2023-04-25T16:15:04;11.90;99.90
6421;DHT22;3243;50.958;7.012;2023-04-25T16:17:31;11.80;99.90
6421;DHT22;3243;50.958;7.012;2023-04-25T16:19:59;11.80;99.90
6421;DHT22;3243;50.958;7.012;2023-04-25T16:22:28;11.70;99.90
6421;DHT22;3243;50.958;7.012;2023-04-25T16:24:55;11.80;99.90
6421;DHT22;3243;50.958;7.012;2023-04-25T16:27:21;11.80;99.90
6421;DHT22;3243;50.958;7.012;2023-04-25T16:29:48;11.80;99.90
6421;DHT22;3243;50.958;7.012;2023-04-25T16:32:16;11.90;99.90
6421;DHT22;3243;50.958;7.012;2023-04-25T16:34:44;11.90;99.90
6421;DHT22;3243;50.958;7.012;2023-04-25T16:37:11;11.80;99.90
6421;DHT22;3243;50.958;7.012;2023-04-25T16:39:37;11.80;99.90
6421;DHT22;3243;50.958;7.012;2023-04-25T16:42:05;11.80;99.90
6421;DHT22;3243;50.958;7.012;2023-04-25T16:44:31;11.60;99.90
6421;DHT22;3243;50.958;7.012;2023-04-25T16:46:58;11.60;99.90
6421;DHT22;3243;50.958;7.012;2023-04-25T16:49:25;11.40;99.90